sensor_id;sensor_type;location;lat;lon;timestamp;pressure;altitude;pressure_sealevel;temperature;humidity
39739;BME280;25422;48.286;8.484;2023-04-15T00:02:20;93112.03;;;-1.87;100.00
39739;BME280;25422;48.286;8.484;2023-04-15T00:04:46;93104.22;;;-1.85;100.00
39739;BME280;25422;48.286;8.484;2023-04-15T00:07:12;93098.44;;;-1.87;100.00
39739;BME280;25422;48.286;8.484;2023-04-15T00:09:39;93106.34;;;-1.90;100.00
39739;BME280;25422;48.286;8.484;2023-04-15T00:12:05;93101.72;;;-1.96;100.00
39739;BME280;25422;48.286;8.484;2023-04-15T00:14:30;93095.19;;;-2.00;100.00
39739;BME280;25422;48.286;8.484;2023-04-15T00:16:56;93093.56;;;-2.01;100.00
39739;BME280;25422;48.286;8.484;2023-04-15T00:19:22;93095.19;;;-2.00;100.00
39739;BME280;25422;48.286;8.484;2023-04-15T00:21:48;93094.38;;;-2.01;100.00
39739;BME280;25422;48.286;8.484;2023-04-15T00:24:14;93093.81;;;-2.05;100.00
39739;BME280;25422;48.286;8.484;2023-04-15T00:26:39;93089.03;;;-2.09;100.00
39739;BME280;25422;48.286;8.484;2023-04-15T00:29:05;93090.06;;;-2.12;100.00
39739;BME280;25422;48.286;8.484;2023-04-15T00:31:30;93087.53;;;-2.12;100.00
39739;BME280;25422;48.286;8.484;2023-04-15T00:33:56;93098.59;;;-2.11;100.00
39739;BME280;25422;48.286;8.484;2023-04-15T00:36:22;93091.03;;;-2.13;100.00
39739;BME280;25422;48.286;8.484;2023-04-15T00:38:49;93081.25;;;-2.19;100.00
39739;BME280;25422;48.286;8.484;2023-04-15T00:41:14;93075.56;;;-2.34;100.00
39739;BME280;25422;48.286;8.484;2023-04-15T00:43:39;93082.13;;;-2.41;100.00
39739;BME280;25422;48.286;8.484;2023-04-15T00:46:05;93081.75;;;-2.37;100.00
39739;BME280;25422;48.286;8.484;2023-04-15T00:48:31;93080.81;;;-2.35;100.00
39739;BME280;25422;48.286;8.484;2023-04-15T00:50:57;93083.38;;;-2.35;100.00
39739;BME280;25422;48.286;8.484;2023-04-15T00:53:23;93085.56;;;-2.31;100.00
39739;BME280;25422;48.286;8.484;2023-04-15T00:55:48;93078.72;;;-2.30;100.00
39739;BME280;25422;48.286;8.484;2023-04-15T00:58:15;93082.78;;;-2.28;100.00
39739;BME280;25422;48.286;8.484;2023-04-15T01:00:41;93084.66;;;-2.30;100.00
39739;BME280;25422;48.286;8.484;2023-04-15T01:03:07;93079.16;;;-2.25;100.00
39739;BME280;25422;48.286;8.484;2023-04-15T01:05:33;93080.34;;;-2.29;100.00
39739;BME280;25422;48.286;8.484;2023-04-15T01:07:58;93080.34;;;-2.29;100.00
39739;BME280;25422;48.286;8.484;2023-04-15T01:10:24;93081.41;;;-2.43;100.00
39739;BME280;25422;48.286;8.484;2023-04-15T01:12:49;93086.91;;;-2.71;100.00
39739;BME280;25422;48.286;8.484;2023-04-15T01:15:15;93091.78;;;-2.79;100.00
39739;BME280;25422;48.286;8.484;2023-04-15T01:17:41;93085.03;;;-2.91;100.00
39739;BME280;25422;48.286;8.484;2023-04-15T01:20:07;93079.69;;;-2.88;100.00
39739;BME280;25422;48.286;8.484;2023-04-15T01:22:34;93085.50;;;-2.75;100.00
39739;BME280;25422;48.286;8.484;2023-04-15T01:25:12;93088.53;;;-2.69;100.00
39739;BME280;25422;48.286;8.484;2023-04-15T01:27:42;93077.47;;;-2.70;100.00
39739;BME280;25422;48.286;8.484;2023-04-15T01:30:08;93082.38;;;-2.67;100.00
39739;BME280;25422;48.286;8.484;2023-04-15T01:32:35;93088.28;;;-2.66;100.00
39739;BME280;25422;48.286;8.484;2023-04-15T01:35:01;93093.41;;;-2.66;100.00
39739;BME280;25422;48.286;8.484;2023-04-15T01:37:26;93090.53;;;-2.62;100.00
39739;BME280;25422;48.286;8.484;2023-04-15T01:39:51;93090.19;;;-2.68;100.00
39739;BME280;25422;48.286;8.484;2023-04-15T01:42:17;93088.53;;;-2.69;100.00
39739;BME280;25422;48.286;8.484;2023-04-15T01:44:42;93087.81;;;-2.72;100.00
39739;BME280;25422;48.286;8.484;2023-04-15T01:47:10;93084.22;;;-2.69;100.00
39739;BME280;25422;48.286;8.484;2023-04-15T01:49:36;93087.16;;;-2.74;100.00
39739;BME280;25422;48.286;8.484;2023-04-15T01:52:02;93083.19;;;-2.78;100.00
39739;BME280;25422;48.286;8.484;2023-04-15T01:54:27;93079.34;;;-2.72;100.00
39739;BME280;25422;48.286;8.484;2023-04-15T01:56:52;93073.28;;;-2.71;100.00
39739;BME280;25422;48.286;8.484;2023-04-15T01:59:18;93074.59;;;-2.77;100.00
39739;BME280;25422;48.286;8.484;2023-04-15T02:01:43;93074.34;;;-2.74;100.00
39739;BME280;25422;48.286;8.484;2023-04-15T02:04:09;93067.59;;;-2.75;100.00
39739;BME280;25422;48.286;8.484;2023-04-15T02:06:41;93077.94;;;-2.76;100.00
39739;BME280;25422;48.286;8.484;2023-04-15T02:09:08;93071.91;;;-2.75;100.00
39739;BME280;25422;48.286;8.484;2023-04-15T02:11:34;93078.28;;;-2.81;100.00
39739;BME280;25422;48.286;8.484;2023-04-15T02:14:02;93075.97;;;-2.84;100.00
39739;BME280;25422;48.286;8.484;2023-04-15T02:16:31;93077.00;;;-2.86;100.00
39739;BME280;25422;48.286;8.484;2023-04-15T02:18:57;93077.25;;;-2.90;100.00
39739;BME280;25422;48.286;8.484;2023-04-15T02:21:22;93076.66;;;-2.93;100.00
39739;BME280;25422;48.286;8.484;2023-04-15T02:23:48;93082.00;;;-2.96;100.00
39739;BME280;25422;48.286;8.484;2023-04-15T02:26:13;93080.59;;;-3.00;100.00
39739;BME280;25422;48.286;8.484;2023-04-15T02:28:39;93077.25;;;-3.01;100.00
39739;BME280;25422;48.286;8.484;2023-04-15T02:31:07;93073.84;;;-3.01;100.00
39739;BME280;25422;48.286;8.484;2023-04-15T02:33:34;93080.00;;;-3.04;100.00
39739;BME280;25422;48.286;8.484;2023-04-15T02:35:59;93074.91;;;-3.04;100.00
39739;BME280;25422;48.286;8.484;2023-04-15T02:38:26;93079.44;;;-3.08;100.00
39739;BME280;25422;48.286;8.484;2023-04-15T02:40:52;93071.88;;;-3.09;100.00
39739;BME280;25422;48.286;8.484;2023-04-15T02:43:17;93079.94;;;-3.02;100.00
39739;BME280;25422;48.286;8.484;2023-04-15T02:45:43;93073.84;;;-3.01;100.00
39739;BME280;25422;48.286;8.484;2023-04-15T02:48:09;93078.75;;;-2.98;100.00
39739;BME280;25422;48.286;8.484;2023-04-15T02:50:35;93075.50;;;-3.00;100.00
39739;BME280;25422;48.286;8.484;2023-04-15T02:53:03;93077.56;;;-3.06;100.00
39739;BME280;25422;48.286;8.484;2023-04-15T02:55:30;93076.41;;;-3.13;100.00
39739;BME280;25422;48.286;8.484;2023-04-15T02:57:55;93078.63;;;-3.08;100.00
39739;BME280;25422;48.286;8.484;2023-04-15T03:00:22;93082.94;;;-2.86;100.00
39739;BME280;25422;48.286;8.484;2023-04-15T03:02:49;93079.00;;;-2.79;100.00
39739;BME280;25422;48.286;8.484;2023-04-15T03:05:21;93078.75;;;-2.76;100.00
39739;BME280;25422;48.286;8.484;2023-04-15T03:07:50;93081.44;;;-2.77;100.00
39739;BME280;25422;48.286;8.484;2023-04-15T03:10:16;93088.19;;;-2.76;100.00
39739;BME280;25422;48.286;8.484;2023-04-15T03:12:42;93078.06;;;-2.78;100.00
39739;BME280;25422;48.286;8.484;2023-04-15T03:15:12;93080.75;;;-2.79;100.00
39739;BME280;25422;48.286;8.484;2023-04-15T03:17:42;93084.81;;;-2.88;100.00
39739;BME280;25422;48.286;8.484;2023-04-15T03:20:07;93079.00;;;-2.90;100.00
39739;BME280;25422;48.286;8.484;2023-04-15T03:22:34;93078.53;;;-2.95;100.00
39739;BME280;25422;48.286;8.484;2023-04-15T03:24:59;93086.88;;;-2.93;100.00
39739;BME280;25422;48.286;8.484;2023-04-15T03:27:25;93073.66;;;-2.98;100.00
39739;BME280;25422;48.286;8.484;2023-04-15T03:29:53;93079.56;;;-2.98;100.00
39739;BME280;25422;48.286;8.484;2023-04-15T03:32:23;93069.22;;;-3.08;100.00
39739;BME280;25422;48.286;8.484;2023-04-15T03:34:48;93065.94;;;-3.10;100.00
39739;BME280;25422;48.286;8.484;2023-04-15T03:37:14;93072.81;;;-3.10;100.00
39739;BME280;25422;48.286;8.484;2023-04-15T03:39:39;93079.09;;;-3.14;100.00
39739;BME280;25422;48.286;8.484;2023-04-15T03:42:05;93076.84;;;-3.19;100.00
39739;BME280;25422;48.286;8.484;2023-04-15T03:44:30;93076.75;;;-3.17;100.00
39739;BME280;25422;48.286;8.484;2023-04-15T03:46:58;93078.41;;;-3.05;100.00
39739;BME280;25422;48.286;8.484;2023-04-15T03:49:23;93073.84;;;-3.01;100.00
39739;BME280;25422;48.286;8.484;2023-04-15T03:51:49;93073.50;;;-3.08;100.00
39739;BME280;25422;48.286;8.484;2023-04-15T03:54:14;93069.34;;;-3.09;100.00
39739;BME280;25422;48.286;8.484;2023-04-15T03:56:40;93078.84;;;-3.11;100.00
39739;BME280;25422;48.286;8.484;2023-04-15T03:59:06;93075.50;;;-3.12;100.00
39739;BME280;25422;48.286;8.484;2023-04-15T04:01:31;93072.47;;;-3.17;100.00
39739;BME280;25422;48.286;8.484;2023-04-15T04:03:56;93075.25;;;-3.20;100.00
39739;BME280;25422;48.286;8.484;2023-04-15T04:06:22;93075.25;;;-3.20;100.00
39739;BME280;25422;48.286;8.484;2023-04-15T04:08:47;93081.28;;;-3.21;100.00
39739;BME280;25422;48.286;8.484;2023-04-15T04:11:13;93079.41;;;-3.19;100.00
39739;BME280;25422;48.286;8.484;2023-04-15T04:13:39;93076.97;;;-3.20;100.00
39739;BME280;25422;48.286;8.484;2023-04-15T04:16:04;93077.81;;;-3.20;100.00
39739;BME280;25422;48.286;8.484;2023-04-15T04:18:31;93082.56;;;-3.15;100.00
39739;BME280;25422;48.286;8.484;2023-04-15T04:20:56;93078.25;;;-3.15;100.00
39739;BME280;25422;48.286;8.484;2023-04-15T04:23:22;93072.22;;;-3.14;100.00
39739;BME280;25422;48.286;8.484;2023-04-15T04:25:47;93076.41;;;-3.13;100.00
39739;BME280;25422;48.286;8.484;2023-04-15T04:28:12;93079.78;;;-3.12;100.00
39739;BME280;25422;48.286;8.484;2023-04-15T04:30:38;93079.66;;;-3.11;100.00
39739;BME280;25422;48.286;8.484;2023-04-15T04:33:04;93080.38;;;-2.97;100.00
39739;BME280;25422;48.286;8.484;2023-04-15T04:35:29;93079.91;;;-2.91;100.00
39739;BME280;25422;48.286;8.484;2023-04-15T04:37:55;93079.44;;;-2.85;100.00
39739;BME280;25422;48.286;8.484;2023-04-15T04:40:20;93076.44;;;-2.79;100.00
39739;BME280;25422;48.286;8.484;2023-04-15T04:42:46;93084.47;;;-2.72;100.00
39739;BME280;25422;48.286;8.484;2023-04-15T04:45:11;93079.94;;;-2.68;100.00
39739;BME280;25422;48.286;8.484;2023-04-15T04:47:37;93078.41;;;-2.60;100.00
39739;BME280;25422;48.286;8.484;2023-04-15T04:50:03;93085.00;;;-2.46;100.00
39739;BME280;25422;48.286;8.484;2023-04-15T04:52:28;93072.69;;;-2.41;100.00
39739;BME280;25422;48.286;8.484;2023-04-15T04:54:53;93085.03;;;-2.34;100.00
39739;BME280;25422;48.286;8.484;2023-04-15T04:57:19;93082.31;;;-2.22;100.00
39739;BME280;25422;48.286;8.484;2023-04-15T04:59:44;93079.97;;;-2.13;100.00
39739;BME280;25422;48.286;8.484;2023-04-15T05:02:10;93079.56;;;-1.97;100.00
39739;BME280;25422;48.286;8.484;2023-04-15T05:04:36;93088.41;;;-1.90;100.00
39739;BME280;25422;48.286;8.484;2023-04-15T05:07:01;93081.34;;;-1.77;100.00
39739;BME280;25422;48.286;8.484;2023-04-15T05:09:26;93092.66;;;-1.47;100.00
39739;BME280;25422;48.286;8.484;2023-04-15T05:11:52;93080.03;;;-1.17;100.00
39739;BME280;25422;48.286;8.484;2023-04-15T05:14:17;93095.19;;;-0.62;100.00
39739;BME280;25422;48.286;8.484;2023-04-15T05:16:43;93088.97;;;-0.19;100.00
39739;BME280;25422;48.286;8.484;2023-04-15T05:19:08;93078.09;;;0.57;100.00
39739;BME280;25422;48.286;8.484;2023-04-15T05:21:34;93077.81;;;1.27;100.00
39739;BME280;25422;48.286;8.484;2023-04-15T05:23:59;93072.25;;;2.15;100.00
39739;BME280;25422;48.286;8.484;2023-04-15T05:26:25;93075.66;;;2.16;100.00
39739;BME280;25422;48.286;8.484;2023-04-15T05:28:51;93070.69;;;2.77;100.00
39739;BME280;25422;48.286;8.484;2023-04-15T05:31:17;93073.91;;;3.15;100.00
39739;BME280;25422;48.286;8.484;2023-04-15T05:33:42;93070.53;;;3.49;100.00
39739;BME280;25422;48.286;8.484;2023-04-15T05:36:08;93074.78;;;2.61;100.00
39739;BME280;25422;48.286;8.484;2023-04-15T05:38:33;93086.66;;;1.90;100.00
39739;BME280;25422;48.286;8.484;2023-04-15T05:40:59;93077.22;;;1.43;100.00
39739;BME280;25422;48.286;8.484;2023-04-15T05:43:24;93082.22;;;1.17;100.00
39739;BME280;25422;48.286;8.484;2023-04-15T05:45:50;93085.91;;;1.05;100.00
39739;BME280;25422;48.286;8.484;2023-04-15T05:48:15;93087.78;;;1.03;100.00
39739;BME280;25422;48.286;8.484;2023-04-15T05:50:41;93093.06;;;1.11;100.00
39739;BME280;25422;48.286;8.484;2023-04-15T05:53:07;93084.09;;;1.15;100.00
39739;BME280;25422;48.286;8.484;2023-04-15T05:55:32;93085.03;;;1.14;100.00
39739;BME280;25422;48.286;8.484;2023-04-15T05:57:58;93083.59;;;1.11;100.00
39739;BME280;25422;48.286;8.484;2023-04-15T06:00:23;93086.38;;;1.18;100.00
39739;BME280;25422;48.286;8.484;2023-04-15T06:02:49;93093.03;;;1.21;100.00
39739;BME280;25422;48.286;8.484;2023-04-15T06:05:14;93093.03;;;1.21;100.00
39739;BME280;25422;48.286;8.484;2023-04-15T06:07:40;93094.41;;;1.15;100.00
39739;BME280;25422;48.286;8.484;2023-04-15T06:10:06;93096.00;;;1.26;100.00
39739;BME280;25422;48.286;8.484;2023-04-15T06:12:32;93089.94;;;1.55;100.00
39739;BME280;25422;48.286;8.484;2023-04-15T06:14:57;93082.84;;;1.66;100.00
39739;BME280;25422;48.286;8.484;2023-04-15T06:17:23;93085.66;;;1.73;100.00
39739;BME280;25422;48.286;8.484;2023-04-15T06:19:48;93082.13;;;1.74;100.00
39739;BME280;25422;48.286;8.484;2023-04-15T06:22:15;93079.78;;;1.81;100.00
39739;BME280;25422;48.286;8.484;2023-04-15T06:24:41;93087.31;;;1.92;100.00
39739;BME280;25422;48.286;8.484;2023-04-15T06:27:06;93088.50;;;1.98;100.00
39739;BME280;25422;48.286;8.484;2023-04-15T06:29:32;93090.97;;;1.99;100.00
39739;BME280;25422;48.286;8.484;2023-04-15T06:31:57;93086.94;;;2.15;100.00
39739;BME280;25422;48.286;8.484;2023-04-15T06:34:22;93078.47;;;2.41;100.00
39739;BME280;25422;48.286;8.484;2023-04-15T06:36:48;93090.94;;;2.63;100.00
39739;BME280;25422;48.286;8.484;2023-04-15T06:39:13;93083.53;;;2.68;100.00
39739;BME280;25422;48.286;8.484;2023-04-15T06:41:39;93082.56;;;2.87;100.00
39739;BME280;25422;48.286;8.484;2023-04-15T06:44:04;93085.75;;;3.52;100.00
39739;BME280;25422;48.286;8.484;2023-04-15T06:46:30;93078.28;;;4.34;100.00
39739;BME280;25422;48.286;8.484;2023-04-15T06:48:56;93082.69;;;5.24;100.00
39739;BME280;25422;48.286;8.484;2023-04-15T06:51:21;93079.47;;;6.35;100.00
39739;BME280;25422;48.286;8.484;2023-04-15T06:53:48;93076.69;;;7.29;100.00
39739;BME280;25422;48.286;8.484;2023-04-15T06:56:13;93079.13;;;7.60;100.00
39739;BME280;25422;48.286;8.484;2023-04-15T06:58:39;93073.97;;;8.42;100.00
39739;BME280;25422;48.286;8.484;2023-04-15T07:01:04;93075.66;;;9.08;100.00
39739;BME280;25422;48.286;8.484;2023-04-15T07:03:30;93077.19;;;9.81;88.55
39739;BME280;25422;48.286;8.484;2023-04-15T07:05:55;93068.66;;;9.65;84.62
39739;BME280;25422;48.286;8.484;2023-04-15T07:08:21;93076.13;;;9.68;79.13
39739;BME280;25422;48.286;8.484;2023-04-15T07:10:47;93078.97;;;10.08;79.51
39739;BME280;25422;48.286;8.484;2023-04-15T07:13:12;93071.53;;;10.05;86.15
39739;BME280;25422;48.286;8.484;2023-04-15T07:15:37;93075.13;;;10.04;87.04
39739;BME280;25422;48.286;8.484;2023-04-15T07:18:03;93068.19;;;10.80;83.71
39739;BME280;25422;48.286;8.484;2023-04-15T07:20:28;93068.47;;;11.39;76.70
39739;BME280;25422;48.286;8.484;2023-04-15T07:22:54;93069.03;;;12.01;70.77
39739;BME280;25422;48.286;8.484;2023-04-15T07:25:20;93061.00;;;13.51;64.14
39739;BME280;25422;48.286;8.484;2023-04-15T07:27:45;93066.59;;;14.42;60.03
39739;BME280;25422;48.286;8.484;2023-04-15T07:30:11;93070.53;;;15.30;54.71
39739;BME280;25422;48.286;8.484;2023-04-15T07:32:37;93074.63;;;15.92;52.50
39739;BME280;25422;48.286;8.484;2023-04-15T07:35:03;93060.13;;;16.95;45.06
39739;BME280;25422;48.286;8.484;2023-04-15T07:37:28;93073.63;;;16.17;47.17
39739;BME280;25422;48.286;8.484;2023-04-15T07:39:54;93070.34;;;15.56;44.08
39739;BME280;25422;48.286;8.484;2023-04-15T07:42:20;93068.84;;;15.48;43.75
39739;BME280;25422;48.286;8.484;2023-04-15T07:44:46;93066.38;;;16.00;44.03
39739;BME280;25422;48.286;8.484;2023-04-15T07:47:11;93069.84;;;16.01;42.31
39739;BME280;25422;48.286;8.484;2023-04-15T07:49:37;93070.22;;;16.98;41.39
39739;BME280;25422;48.286;8.484;2023-04-15T07:52:02;93075.84;;;17.01;40.98
39739;BME280;25422;48.286;8.484;2023-04-15T07:54:28;93069.50;;;17.48;37.35
39739;BME280;25422;48.286;8.484;2023-04-15T07:56:53;93069.88;;;18.64;38.01
39739;BME280;25422;48.286;8.484;2023-04-15T07:59:19;93068.38;;;18.29;37.62
39739;BME280;25422;48.286;8.484;2023-04-15T08:01:44;93074.31;;;18.59;35.39
39739;BME280;25422;48.286;8.484;2023-04-15T08:04:10;93074.00;;;18.77;33.99
39739;BME280;25422;48.286;8.484;2023-04-15T08:06:36;93070.69;;;18.65;33.90
39739;BME280;25422;48.286;8.484;2023-04-15T08:09:04;93065.31;;;18.82;34.68
39739;BME280;25422;48.286;8.484;2023-04-15T08:11:29;93072.06;;;19.71;34.55
39739;BME280;25422;48.286;8.484;2023-04-15T08:13:55;93069.16;;;19.73;32.61
39739;BME280;25422;48.286;8.484;2023-04-15T08:16:23;93075.00;;;18.71;33.96
39739;BME280;25422;48.286;8.484;2023-04-15T08:18:50;93070.19;;;19.40;33.37
39739;BME280;25422;48.286;8.484;2023-04-15T08:21:16;93078.63;;;18.65;34.85
39739;BME280;25422;48.286;8.484;2023-04-15T08:23:42;93069.03;;;19.58;33.37
39739;BME280;25422;48.286;8.484;2023-04-15T08:26:08;93074.31;;;18.59;33.51
39739;BME280;25422;48.286;8.484;2023-04-15T08:28:34;93080.34;;;18.15;35.32
39739;BME280;25422;48.286;8.484;2023-04-15T08:30:59;93082.34;;;17.40;34.40
39739;BME280;25422;48.286;8.484;2023-04-15T08:33:25;93086.09;;;16.33;37.66
39739;BME280;25422;48.286;8.484;2023-04-15T08:35:51;93088.00;;;16.62;36.69
39739;BME280;25422;48.286;8.484;2023-04-15T08:38:16;93089.59;;;15.44;39.12
39739;BME280;25422;48.286;8.484;2023-04-15T08:40:44;93085.94;;;15.45;38.15
39739;BME280;25422;48.286;8.484;2023-04-15T08:43:23;93087.56;;;16.41;35.53
39739;BME280;25422;48.286;8.484;2023-04-15T08:45:53;93082.78;;;16.14;36.31
39739;BME280;25422;48.286;8.484;2023-04-15T08:48:20;93085.91;;;16.64;37.04
39739;BME280;25422;48.286;8.484;2023-04-15T08:50:46;93090.59;;;15.01;38.87
39739;BME280;25422;48.286;8.484;2023-04-15T08:53:13;93083.78;;;15.78;38.35
39739;BME280;25422;48.286;8.484;2023-04-15T08:55:42;93096.66;;;13.90;38.84
39739;BME280;25422;48.286;8.484;2023-04-15T08:58:12;93092.03;;;14.48;38.42
39739;BME280;25422;48.286;8.484;2023-04-15T09:00:38;93098.78;;;15.23;38.05
39739;BME280;25422;48.286;8.484;2023-04-15T09:03:04;93094.50;;;16.07;34.88
39739;BME280;25422;48.286;8.484;2023-04-15T09:05:32;93093.34;;;14.76;37.21
39739;BME280;25422;48.286;8.484;2023-04-15T09:07:58;93098.59;;;14.94;35.37
39739;BME280;25422;48.286;8.484;2023-04-15T09:10:23;93097.66;;;14.52;35.45
39739;BME280;25422;48.286;8.484;2023-04-15T09:12:49;93091.16;;;15.88;33.00
39739;BME280;25422;48.286;8.484;2023-04-15T09:15:14;93101.59;;;16.42;33.42
39739;BME280;25422;48.286;8.484;2023-04-15T09:17:44;93101.16;;;16.74;31.13
39739;BME280;25422;48.286;8.484;2023-04-15T09:20:10;93098.41;;;16.28;32.21
39739;BME280;25422;48.286;8.484;2023-04-15T09:22:41;93103.53;;;16.99;30.87
39739;BME280;25422;48.286;8.484;2023-04-15T09:27:48;93108.31;;;15.78;32.51
39739;BME280;25422;48.286;8.484;2023-04-15T09:30:14;93102.63;;;16.29;30.72
39739;BME280;25422;48.286;8.484;2023-04-15T09:32:51;93106.50;;;16.26;31.83
39739;BME280;25422;48.286;8.484;2023-04-15T09:35:17;93110.69;;;14.46;35.12
39739;BME280;25422;48.286;8.484;2023-04-15T09:37:43;93109.78;;;13.90;34.61
39739;BME280;25422;48.286;8.484;2023-04-15T09:40:09;93111.91;;;14.07;37.15
39739;BME280;25422;48.286;8.484;2023-04-15T09:42:35;93113.31;;;13.84;36.71
39739;BME280;25422;48.286;8.484;2023-04-15T09:45:10;93114.19;;;14.59;33.01
39739;BME280;25422;48.286;8.484;2023-04-15T09:47:36;93118.88;;;14.75;33.32
39739;BME280;25422;48.286;8.484;2023-04-15T09:50:02;93116.81;;;14.40;32.33
39739;BME280;25422;48.286;8.484;2023-04-15T09:52:28;93128.00;;;15.22;33.96
39739;BME280;25422;48.286;8.484;2023-04-15T09:54:55;93116.81;;;14.59;32.75
39739;BME280;25422;48.286;8.484;2023-04-15T09:57:21;93113.13;;;14.66;32.28
39739;BME280;25422;48.286;8.484;2023-04-15T09:59:48;93125.91;;;14.00;35.66
39739;BME280;25422;48.286;8.484;2023-04-15T10:02:14;93118.00;;;14.63;34.43
39739;BME280;25422;48.286;8.484;2023-04-15T10:04:40;93116.28;;;13.30;36.65
39739;BME280;25422;48.286;8.484;2023-04-15T10:07:10;93120.25;;;13.46;37.19
39739;BME280;25422;48.286;8.484;2023-04-15T10:09:38;93126.22;;;13.60;37.37
39739;BME280;25422;48.286;8.484;2023-04-15T10:12:04;93125.69;;;13.52;37.18
39739;BME280;25422;48.286;8.484;2023-04-15T10:14:37;93123.94;;;13.96;38.55
39739;BME280;25422;48.286;8.484;2023-04-15T10:17:04;93115.78;;;14.97;34.20
39739;BME280;25422;48.286;8.484;2023-04-15T10:19:36;93122.69;;;15.82;32.37
39739;BME280;25422;48.286;8.484;2023-04-15T10:22:02;93116.16;;;14.63;35.60
39739;BME280;25422;48.286;8.484;2023-04-15T10:24:30;93122.38;;;14.88;36.16
39739;BME280;25422;48.286;8.484;2023-04-15T10:26:56;93124.97;;;14.13;35.51
39739;BME280;25422;48.286;8.484;2023-04-15T10:29:24;93123.81;;;13.59;37.78
39739;BME280;25422;48.286;8.484;2023-04-15T10:31:55;93134.22;;;13.47;38.35
39739;BME280;25422;48.286;8.484;2023-04-15T10:34:22;93130.88;;;12.88;37.04
39739;BME280;25422;48.286;8.484;2023-04-15T10:36:48;93138.13;;;12.92;37.02
39739;BME280;25422;48.286;8.484;2023-04-15T10:42:06;93142.63;;;12.78;38.97
39739;BME280;25422;48.286;8.484;2023-04-15T10:44:32;93148.88;;;12.77;39.78
39739;BME280;25422;48.286;8.484;2023-04-15T10:46:58;93145.94;;;13.06;40.51
39739;BME280;25422;48.286;8.484;2023-04-15T10:49:24;93153.53;;;12.82;39.30
39739;BME280;25422;48.286;8.484;2023-04-15T10:51:52;93150.53;;;12.72;39.37
39739;BME280;25422;48.286;8.484;2023-04-15T10:59:38;93159.38;;;12.77;40.70
39739;BME280;25422;48.286;8.484;2023-04-15T11:02:06;93164.66;;;12.64;42.82
39739;BME280;25422;48.286;8.484;2023-04-15T11:07:38;93163.06;;;12.63;39.83
39739;BME280;25422;48.286;8.484;2023-04-15T11:12:39;93169.53;;;13.12;41.47
39739;BME280;25422;48.286;8.484;2023-04-15T11:17:50;93176.91;;;13.29;37.72
39739;BME280;25422;48.286;8.484;2023-04-15T11:20:16;93179.91;;;12.94;38.79
39739;BME280;25422;48.286;8.484;2023-04-15T11:22:49;93176.97;;;12.77;39.97
39739;BME280;25422;48.286;8.484;2023-04-15T11:25:25;93186.38;;;11.86;43.06
39739;BME280;25422;48.286;8.484;2023-04-15T11:27:52;93184.16;;;12.16;41.51
39739;BME280;25422;48.286;8.484;2023-04-15T11:30:21;93196.97;;;11.37;42.57
39739;BME280;25422;48.286;8.484;2023-04-15T11:32:52;93202.50;;;11.01;46.50
39739;BME280;25422;48.286;8.484;2023-04-15T11:35:18;93197.03;;;10.89;43.77
39739;BME280;25422;48.286;8.484;2023-04-15T11:37:45;93207.66;;;10.80;46.47
39739;BME280;25422;48.286;8.484;2023-04-15T11:40:11;93208.00;;;10.64;46.70
39739;BME280;25422;48.286;8.484;2023-04-15T11:42:38;93206.16;;;10.29;49.94
39739;BME280;25422;48.286;8.484;2023-04-15T11:45:10;93205.00;;;10.74;44.30
39739;BME280;25422;48.286;8.484;2023-04-15T11:47:36;93211.19;;;10.31;46.61
39739;BME280;25422;48.286;8.484;2023-04-15T11:50:19;93222.06;;;10.06;48.98
39739;BME280;25422;48.286;8.484;2023-04-15T11:52:55;93219.44;;;10.63;45.01
39739;BME280;25422;48.286;8.484;2023-04-15T11:55:21;93221.03;;;10.57;47.07
39739;BME280;25422;48.286;8.484;2023-04-15T11:57:49;93226.25;;;10.57;45.94
39739;BME280;25422;48.286;8.484;2023-04-15T12:00:15;93223.31;;;10.74;44.88
39739;BME280;25422;48.286;8.484;2023-04-15T12:02:42;93231.25;;;10.52;45.99
39739;BME280;25422;48.286;8.484;2023-04-15T12:05:08;93234.22;;;10.42;48.00
39739;BME280;25422;48.286;8.484;2023-04-15T12:07:57;93231.38;;;10.37;47.17
39739;BME280;25422;48.286;8.484;2023-04-15T12:10:26;93237.38;;;10.66;46.22
39739;BME280;25422;48.286;8.484;2023-04-15T12:12:51;93250.25;;;10.11;54.90
39739;BME280;25422;48.286;8.484;2023-04-15T12:15:21;93249.72;;;9.72;58.48
39739;BME280;25422;48.286;8.484;2023-04-15T12:17:47;93261.13;;;9.65;64.76
39739;BME280;25422;48.286;8.484;2023-04-15T12:20:12;93264.69;;;9.42;74.98
39739;BME280;25422;48.286;8.484;2023-04-15T12:22:38;93262.78;;;9.14;72.14
39739;BME280;25422;48.286;8.484;2023-04-15T12:25:03;93276.91;;;9.20;78.86
39739;BME280;25422;48.286;8.484;2023-04-15T12:27:30;93267.63;;;9.32;61.97
39739;BME280;25422;48.286;8.484;2023-04-15T12:30:06;93264.00;;;9.55;62.83
39739;BME280;25422;48.286;8.484;2023-04-15T12:32:34;93279.59;;;9.63;62.18
39739;BME280;25422;48.286;8.484;2023-04-15T12:35:00;93275.66;;;9.74;57.81
39739;BME280;25422;48.286;8.484;2023-04-15T12:37:26;93275.22;;;9.92;56.31
39739;BME280;25422;48.286;8.484;2023-04-15T12:39:51;93279.16;;;10.31;57.80
39739;BME280;25422;48.286;8.484;2023-04-15T12:42:18;93283.34;;;10.82;54.01
39739;BME280;25422;48.286;8.484;2023-04-15T12:44:45;93283.22;;;10.97;53.54
39739;BME280;25422;48.286;8.484;2023-04-15T12:47:11;93289.56;;;10.81;47.99
39739;BME280;25422;48.286;8.484;2023-04-15T12:49:36;93285.50;;;11.13;48.29
39739;BME280;25422;48.286;8.484;2023-04-15T12:52:02;93288.44;;;10.97;48.35
39739;BME280;25422;48.286;8.484;2023-04-15T12:54:29;93290.69;;;11.48;46.46
39739;BME280;25422;48.286;8.484;2023-04-15T12:56:54;93291.06;;;11.39;46.59
39739;BME280;25422;48.286;8.484;2023-04-15T12:59:20;93289.06;;;11.41;48.88
39739;BME280;25422;48.286;8.484;2023-04-15T13:01:48;93290.84;;;12.09;43.67
39739;BME280;25422;48.286;8.484;2023-04-15T13:04:17;93292.66;;;12.08;42.03
39739;BME280;25422;48.286;8.484;2023-04-15T13:06:43;93300.09;;;11.98;44.10
39739;BME280;25422;48.286;8.484;2023-04-15T13:09:08;93301.72;;;12.26;45.18
39739;BME280;25422;48.286;8.484;2023-04-15T13:11:34;93298.91;;;12.47;46.54
39739;BME280;25422;48.286;8.484;2023-04-15T13:14:02;93298.28;;;12.72;44.54